createdAt,value
2023-06-10T00:04:45.144Z,26.70
2023-06-10T00:10:19.059Z,26.60
2023-06-10T00:16:25.229Z,26.60
2023-06-10T00:22:35.647Z,26.60
2023-06-10T00:53:23.684Z,26.40
2023-06-10T01:00:35.280Z,26.40
2023-06-10T01:06:54.133Z,26.40
2023-06-10T01:18:45.693Z,26.40
2023-06-10T01:23:11.068Z,26.30
2023-06-10T01:28:55.251Z,26.30
2023-06-10T01:34:17.369Z,26.30
2023-06-10T01:40:44.628Z,26.20
2023-06-10T01:45:56.331Z,26.20
2023-06-10T01:50:53.018Z,26.20
2023-06-10T01:57:10.091Z,26.20
2023-06-10T02:08:45.265Z,26.10
2023-06-10T02:12:06.450Z,26.10
2023-06-10T02:24:23.335Z,26.10
2023-06-10T02:29:41.727Z,26.00
2023-06-10T02:43:10.335Z,26.00
2023-06-10T03:07:34.840Z,25.90
2023-06-10T03:14:26.475Z,25.90
2023-06-10T03:21:36.243Z,25.80
2023-06-10T03:26:46.676Z,25.80
2023-06-10T03:32:35.824Z,25.80
2023-06-10T03:38:21.728Z,25.80
2023-06-10T03:43:48.279Z,25.70
2023-06-10T03:49:40.338Z,25.70
2023-06-10T03:55:32.398Z,25.70
2023-06-10T04:01:46.028Z,25.70
2023-06-10T04:06:30.526Z,25.60
2023-06-10T04:12:41.381Z,25.60
2023-06-10T04:25:41.701Z,25.60
2023-06-10T04:29:09.858Z,25.60
2023-06-10T04:36:08.812Z,25.60
2023-06-10T04:53:43.121Z,25.50
2023-06-10T04:59:46.739Z,25.60
2023-06-10T05:09:40.439Z,25.60
2023-06-10T05:15:04.866Z,25.60
2023-06-10T05:21:34.364Z,25.60
2023-06-10T05:33:20.746Z,25.60
2023-06-10T05:38:15.272Z,25.60
2023-06-10T05:49:11.398Z,25.60
2023-06-10T06:00:22.028Z,25.60
2023-06-10T06:06:27.029Z,25.60
2023-06-10T06:11:57.511Z,25.60
2023-06-10T06:19:32.648Z,25.60
2023-06-10T06:30:37.159Z,25.60
2023-06-10T06:37:01.767Z,25.60
2023-06-10T06:43:09.191Z,25.60
2023-06-10T07:00:10.362Z,25.50
2023-06-10T07:06:23.208Z,25.50
2023-06-10T07:10:49.440Z,25.50
2023-06-10T07:17:55.443Z,25.50
2023-06-10T07:21:27.270Z,25.50
2023-06-10T07:26:48.420Z,25.50
2023-06-10T07:32:08.339Z,25.50
2023-06-10T07:38:41.748Z,25.50
2023-06-10T07:42:34.815Z,25.50
2023-06-10T07:47:47.225Z,25.50
2023-06-10T07:58:23.437Z,25.50
2023-06-10T08:04:06.348Z,25.50
2023-06-10T08:09:55.166Z,25.50
2023-06-10T08:15:57.527Z,25.50
2023-06-10T08:21:58.994Z,25.50
2023-06-10T08:27:48.339Z,25.50
2023-06-10T08:33:43.996Z,25.50
2023-06-10T08:50:56.562Z,25.60
2023-06-10T08:57:11.218Z,25.60
2023-06-10T09:08:28.484Z,25.60
2023-06-10T09:19:37.376Z,25.60
2023-06-10T09:26:08.985Z,25.70
2023-06-10T09:30:45.014Z,25.60
2023-06-10T09:41:51.331Z,25.70
2023-06-10T09:47:34.197Z,25.70
2023-06-10T09:53:21.564Z,25.80
2023-06-10T09:59:08.952Z,25.80
2023-06-10T10:04:51.308Z,25.80
2023-06-10T10:10:34.013Z,25.80
2023-06-10T10:16:21.630Z,25.90
2023-06-10T10:22:19.025Z,25.90
2023-06-10T10:28:02.817Z,26.00
2023-06-10T10:33:17.673Z,26.00
2023-06-10T10:38:36.342Z,26.00
2023-06-10T10:43:50.328Z,26.10
2023-06-10T10:49:37.435Z,26.20
2023-06-10T10:55:19.726Z,26.20
2023-06-10T11:01:16.430Z,26.30
2023-06-10T11:06:58.991Z,26.30
2023-06-10T11:12:16.434Z,26.30
2023-06-10T11:18:05.688Z,26.50
2023-06-10T11:28:35.976Z,26.40
2023-06-10T11:29:15.025Z,26.50
2023-06-10T11:34:36.161Z,26.50
2023-06-10T11:39:47.656Z,26.60
2023-06-10T11:45:02.720Z,26.60
2023-06-10T11:50:26.133Z,26.60
2023-06-10T11:56:16.436Z,26.70
2023-06-10T12:02:03.765Z,26.70
2023-06-10T12:07:50.934Z,26.80
2023-06-10T12:23:43.724Z,26.90
2023-06-10T12:28:55.801Z,26.90
2023-06-10T12:39:41.320Z,26.90
2023-06-10T12:44:54.625Z,27.00
2023-06-10T12:50:39.747Z,27.00
2023-06-10T12:56:48.306Z,27.10
2023-06-10T13:02:09.968Z,27.10
2023-06-10T13:07:26.889Z,27.10
2023-06-10T13:13:11.985Z,27.20
2023-06-10T13:30:18.575Z,27.20
2023-06-10T13:35:58.821Z,27.30
2023-06-10T13:41:46.978Z,27.30
2023-06-10T13:47:44.520Z,27.30
2023-06-10T13:53:31.706Z,27.40
2023-06-10T14:12:28.158Z,27.40
2023-06-10T14:18:27.078Z,27.50
2023-06-10T14:23:40.808Z,27.50
2023-06-10T14:29:25.974Z,27.50
2023-06-10T14:35:23.909Z,27.50
2023-06-10T14:41:55.909Z,27.50
2023-06-10T14:46:15.550Z,27.60
2023-06-10T14:52:12.604Z,27.60
2023-06-10T14:58:08.419Z,27.60
2023-06-10T15:03:23.782Z,27.60
2023-06-10T15:09:04.039Z,27.60
2023-06-10T15:15:16.693Z,27.70
2023-06-10T15:21:06.184Z,27.70
2023-06-10T15:25:42.321Z,27.70
2023-06-10T15:36:42.115Z,27.80
2023-06-10T15:40:27.462Z,27.70
2023-06-10T15:41:45.210Z,27.80
2023-06-10T15:47:27.571Z,27.80
2023-06-10T15:53:09.900Z,27.80
2023-06-10T15:58:53.283Z,27.90
2023-06-10T16:04:54.850Z,27.90
2023-06-10T16:10:00.932Z,28.00
2023-06-10T16:15:24.556Z,28.00
2023-06-10T16:21:17.374Z,28.00
2023-06-10T16:27:15.973Z,28.10
2023-06-10T16:32:36.869Z,28.10
2023-06-10T16:38:17.926Z,28.10
2023-06-10T16:44:05.326Z,28.20
2023-06-10T16:54:43.396Z,28.20
2023-06-10T17:00:28.562Z,28.20
2023-06-10T17:06:14.426Z,28.30
2023-06-10T17:17:20.842Z,28.30
2023-06-10T17:23:39.712Z,28.30
2023-06-10T17:33:44.657Z,28.40
2023-06-10T17:39:36.322Z,28.40
2023-06-10T17:46:43.926Z,28.40
2023-06-10T17:52:14.350Z,28.40
2023-06-10T17:58:15.982Z,28.40
2023-06-10T18:04:04.585Z,28.40
2023-06-10T18:18:18.441Z,28.40
2023-06-10T18:27:56.327Z,28.40
2023-06-10T18:33:23.139Z,28.40
2023-06-10T18:39:27.238Z,28.40
2023-06-10T18:44:33.065Z,28.40
2023-06-10T18:50:18.736Z,28.30
2023-06-10T18:55:39.939Z,28.30
2023-06-10T19:01:09.003Z,28.30
2023-06-10T19:06:31.250Z,28.30
2023-06-10T19:11:44.185Z,28.30
2023-06-10T19:17:04.127Z,28.20
2023-06-10T19:22:17.163Z,28.20
2023-06-10T19:27:33.087Z,28.20
2023-06-10T19:33:26.680Z,28.10
2023-06-10T19:43:59.896Z,28.00
2023-06-10T19:44:02.582Z,28.10
2023-06-10T19:49:35.344Z,28.00
2023-06-10T19:59:34.346Z,28.00
2023-06-10T20:05:24.326Z,28.00
2023-06-10T20:10:38.537Z,28.00
2023-06-10T20:17:28.577Z,28.10
2023-06-10T20:23:14.317Z,28.10
2023-06-10T20:30:21.270Z,28.10
2023-06-10T20:41:57.661Z,28.10
2023-06-10T20:46:42.879Z,28.10
2023-06-10T20:57:51.253Z,28.10
2023-06-10T21:03:42.773Z,28.10
2023-06-10T21:09:14.998Z,28.10
2023-06-10T21:17:13.530Z,28.10
2023-06-10T21:23:35.046Z,28.10
2023-06-10T21:29:47.279Z,28.10
2023-06-10T21:35:43.095Z,28.00
2023-06-10T21:47:22.488Z,28.00
2023-06-10T21:53:01.569Z,28.00
2023-06-10T22:04:01.159Z,27.90
2023-06-10T22:15:44.127Z,27.90
2023-06-10T22:21:06.550Z,27.80
2023-06-10T22:27:17.738Z,27.80
2023-06-10T22:33:08.981Z,27.80
2023-06-10T22:40:19.749Z,27.70
2023-06-10T22:51:32.504Z,27.70
2023-06-10T22:56:47.565Z,27.70
2023-06-10T23:02:11.436Z,27.70
2023-06-10T23:07:18.128Z,27.70
2023-06-10T23:12:30.318Z,27.70
2023-06-10T23:17:48.353Z,27.60
2023-06-10T23:22:58.424Z,27.60
2023-06-10T23:28:27.045Z,27.50
2023-06-10T23:34:14.038Z,27.40
2023-06-10T23:39:34.639Z,27.40
2023-06-10T23:45:17.872Z,27.30
2023-06-10T23:50:28.285Z,27.30
2023-06-10T23:56:31.961Z,27.10
